Port Royal, Kentucky
Current Conditions -  °F | °C
As of 9:53 PM on Friday 21 Nov 2014 (Local Time) from KFFT Reporting Station
Clear Clear  
Wind Chill: 19°   Ceiling: Unl
Heat Index: 25°   Visibility: 10mi
Dew Point: 14°   Wind: 5mph
Humidity: 63%   Direction: 80°E
Pressure: 30.39"   Gusts: NA
Location:  38.56°N, 85.08°W
Report Text: KFFT 220253Z AUTO 08004KT 10SM CLR M04/M10 A3039 RMK AO2 SLP302 T10391100 58009
Loading
Personal Weather Stations






























Interactive Weather Map New forecast layout! Learn more

10-Day Weather Forecast

Advertisements
Track Severe Weather on mobile